sensor_id;sensor_type;location;lat;lon;timestamp;temperature;humidity
19968;DHT22;10145;49.152;9.282;2023-12-20T00:01:29;5.00;99.90
19968;DHT22;10145;49.152;9.282;2023-12-20T00:03:54;5.00;99.90
19968;DHT22;10145;49.152;9.282;2023-12-20T00:06:20;5.00;99.90
19968;DHT22;10145;49.152;9.282;2023-12-20T00:08:45;5.00;99.90
19968;DHT22;10145;49.152;9.282;2023-12-20T00:11:11;5.00;99.90
19968;DHT22;10145;49.152;9.282;2023-12-20T00:13:36;5.00;99.90
19968;DHT22;10145;49.152;9.282;2023-12-20T00:16:02;5.00;99.90
19968;DHT22;10145;49.152;9.282;2023-12-20T00:18:28;5.00;99.90
19968;DHT22;10145;49.152;9.282;2023-12-20T00:20:53;5.00;99.90
19968;DHT22;10145;49.152;9.282;2023-12-20T00:23:19;5.00;99.90
19968;DHT22;10145;49.152;9.282;2023-12-20T00:25:45;4.90;99.90
19968;DHT22;10145;49.152;9.282;2023-12-20T00:28:10;5.00;99.90
19968;DHT22;10145;49.152;9.282;2023-12-20T00:30:36;5.00;99.90
19968;DHT22;10145;49.152;9.282;2023-12-20T00:33:02;4.90;99.90
19968;DHT22;10145;49.152;9.282;2023-12-20T00:35:27;4.90;99.90
19968;DHT22;10145;49.152;9.282;2023-12-20T00:37:53;4.90;99.90
19968;DHT22;10145;49.152;9.282;2023-12-20T00:40:19;4.90;99.90
19968;DHT22;10145;49.152;9.282;2023-12-20T00:42:44;4.90;99.90
19968;DHT22;10145;49.152;9.282;2023-12-20T00:45:12;4.90;99.90
19968;DHT22;10145;49.152;9.282;2023-12-20T00:47:38;5.00;99.90
19968;DHT22;10145;49.152;9.282;2023-12-20T00:50:03;4.90;99.90
19968;DHT22;10145;49.152;9.282;2023-12-20T00:52:29;5.00;99.90
19968;DHT22;10145;49.152;9.282;2023-12-20T00:54:54;4.90;99.90
19968;DHT22;10145;49.152;9.282;2023-12-20T00:57:20;5.00;99.90
19968;DHT22;10145;49.152;9.282;2023-12-20T00:59:46;4.90;99.90
19968;DHT22;10145;49.152;9.282;2023-12-20T01:02:11;5.00;99.90
19968;DHT22;10145;49.152;9.282;2023-12-20T01:04:37;5.00;99.90
19968;DHT22;10145;49.152;9.282;2023-12-20T01:07:02;5.10;99.90
19968;DHT22;10145;49.152;9.282;2023-12-20T01:09:28;5.10;99.90
19968;DHT22;10145;49.152;9.282;2023-12-20T01:11:53;5.10;99.90
19968;DHT22;10145;49.152;9.282;2023-12-20T01:14:19;5.10;99.90
19968;DHT22;10145;49.152;9.282;2023-12-20T01:16:45;5.10;99.90
19968;DHT22;10145;49.152;9.282;2023-12-20T01:19:10;5.20;99.90
19968;DHT22;10145;49.152;9.282;2023-12-20T01:21:36;5.30;99.90
19968;DHT22;10145;49.152;9.282;2023-12-20T01:24:02;5.10;99.90
19968;DHT22;10145;49.152;9.282;2023-12-20T01:26:27;5.10;99.90
19968;DHT22;10145;49.152;9.282;2023-12-20T01:28:53;5.20;99.90
19968;DHT22;10145;49.152;9.282;2023-12-20T01:31:18;5.20;99.90
19968;DHT22;10145;49.152;9.282;2023-12-20T01:33:44;5.20;99.90
19968;DHT22;10145;49.152;9.282;2023-12-20T01:36:09;5.20;99.90
19968;DHT22;10145;49.152;9.282;2023-12-20T01:38:36;5.20;99.90
19968;DHT22;10145;49.152;9.282;2023-12-20T01:41:02;5.20;99.90
19968;DHT22;10145;49.152;9.282;2023-12-20T01:43:27;5.30;99.90
19968;DHT22;10145;49.152;9.282;2023-12-20T01:45:55;5.30;99.90
19968;DHT22;10145;49.152;9.282;2023-12-20T01:48:21;5.30;99.90
19968;DHT22;10145;49.152;9.282;2023-12-20T01:50:47;5.30;99.90
19968;DHT22;10145;49.152;9.282;2023-12-20T01:53:14;5.40;99.90
19968;DHT22;10145;49.152;9.282;2023-12-20T01:55:41;5.30;99.90
19968;DHT22;10145;49.152;9.282;2023-12-20T01:58:11;5.30;99.90
19968;DHT22;10145;49.152;9.282;2023-12-20T02:00:37;5.30;99.90
19968;DHT22;10145;49.152;9.282;2023-12-20T02:03:04;5.30;99.90
19968;DHT22;10145;49.152;9.282;2023-12-20T02:05:30;5.30;99.90
19968;DHT22;10145;49.152;9.282;2023-12-20T02:07:56;5.30;99.90
19968;DHT22;10145;49.152;9.282;2023-12-20T02:10:21;5.30;99.90
19968;DHT22;10145;49.152;9.282;2023-12-20T02:12:47;5.50;99.90
19968;DHT22;10145;49.152;9.282;2023-12-20T02:15:13;5.30;99.90
19968;DHT22;10145;49.152;9.282;2023-12-20T02:17:38;5.40;99.90
19968;DHT22;10145;49.152;9.282;2023-12-20T02:20:05;5.30;99.90
19968;DHT22;10145;49.152;9.282;2023-12-20T02:22:31;5.30;99.90
19968;DHT22;10145;49.152;9.282;2023-12-20T02:24:57;5.30;99.90
19968;DHT22;10145;49.152;9.282;2023-12-20T02:27:23;5.30;99.90
19968;DHT22;10145;49.152;9.282;2023-12-20T02:29:49;5.40;99.90
19968;DHT22;10145;49.152;9.282;2023-12-20T02:32:16;5.30;99.90
19968;DHT22;10145;49.152;9.282;2023-12-20T02:34:42;5.30;99.90
19968;DHT22;10145;49.152;9.282;2023-12-20T02:37:08;5.30;99.90
19968;DHT22;10145;49.152;9.282;2023-12-20T02:39:33;5.30;99.90
19968;DHT22;10145;49.152;9.282;2023-12-20T02:41:59;5.30;99.90
19968;DHT22;10145;49.152;9.282;2023-12-20T02:44:24;5.30;99.90
19968;DHT22;10145;49.152;9.282;2023-12-20T02:46:50;5.30;99.90
19968;DHT22;10145;49.152;9.282;2023-12-20T02:49:15;5.30;99.90
19968;DHT22;10145;49.152;9.282;2023-12-20T02:51:41;5.30;99.90
19968;DHT22;10145;49.152;9.282;2023-12-20T02:54:07;5.30;99.90
19968;DHT22;10145;49.152;9.282;2023-12-20T02:56:33;5.30;99.90
19968;DHT22;10145;49.152;9.282;2023-12-20T02:58:59;5.30;99.90
19968;DHT22;10145;49.152;9.282;2023-12-20T03:01:24;5.30;99.90
19968;DHT22;10145;49.152;9.282;2023-12-20T03:03:50;5.20;99.90
19968;DHT22;10145;49.152;9.282;2023-12-20T03:06:20;5.20;99.90
19968;DHT22;10145;49.152;9.282;2023-12-20T03:08:46;5.20;99.90
19968;DHT22;10145;49.152;9.282;2023-12-20T03:11:11;5.20;99.90
19968;DHT22;10145;49.152;9.282;2023-12-20T03:13:37;5.20;99.90
19968;DHT22;10145;49.152;9.282;2023-12-20T03:16:13;5.20;99.90
19968;DHT22;10145;49.152;9.282;2023-12-20T03:18:39;5.20;99.90
19968;DHT22;10145;49.152;9.282;2023-12-20T03:21:05;5.20;99.90
19968;DHT22;10145;49.152;9.282;2023-12-20T03:23:31;5.20;99.90
19968;DHT22;10145;49.152;9.282;2023-12-20T03:25:59;5.20;99.90
19968;DHT22;10145;49.152;9.282;2023-12-20T03:28:25;5.20;99.90
19968;DHT22;10145;49.152;9.282;2023-12-20T03:30:50;5.20;99.90
19968;DHT22;10145;49.152;9.282;2023-12-20T03:33:16;5.10;99.90
19968;DHT22;10145;49.152;9.282;2023-12-20T03:35:41;5.20;99.90
19968;DHT22;10145;49.152;9.282;2023-12-20T03:38:07;5.20;99.90
19968;DHT22;10145;49.152;9.282;2023-12-20T03:40:33;5.20;99.90
19968;DHT22;10145;49.152;9.282;2023-12-20T03:42:58;5.20;99.90
19968;DHT22;10145;49.152;9.282;2023-12-20T03:45:24;5.20;99.90
19968;DHT22;10145;49.152;9.282;2023-12-20T03:47:50;5.30;99.90
19968;DHT22;10145;49.152;9.282;2023-12-20T03:50:21;5.20;99.90
19968;DHT22;10145;49.152;9.282;2023-12-20T03:52:47;5.30;99.90
19968;DHT22;10145;49.152;9.282;2023-12-20T03:55:13;5.20;99.90
19968;DHT22;10145;49.152;9.282;2023-12-20T03:57:38;5.20;99.90
19968;DHT22;10145;49.152;9.282;2023-12-20T04:00:04;5.20;99.90
19968;DHT22;10145;49.152;9.282;2023-12-20T04:02:30;5.20;99.90
19968;DHT22;10145;49.152;9.282;2023-12-20T04:04:56;5.20;99.90
19968;DHT22;10145;49.152;9.282;2023-12-20T04:07:22;5.20;99.90
19968;DHT22;10145;49.152;9.282;2023-12-20T04:09:47;5.20;99.90
19968;DHT22;10145;49.152;9.282;2023-12-20T04:12:13;5.20;99.90
19968;DHT22;10145;49.152;9.282;2023-12-20T04:14:39;5.10;99.90
19968;DHT22;10145;49.152;9.282;2023-12-20T04:17:04;5.10;99.90
19968;DHT22;10145;49.152;9.282;2023-12-20T04:19:30;5.20;99.90
19968;DHT22;10145;49.152;9.282;2023-12-20T04:21:55;5.10;99.90
19968;DHT22;10145;49.152;9.282;2023-12-20T04:24:21;5.10;99.90
19968;DHT22;10145;49.152;9.282;2023-12-20T04:26:47;5.10;99.90
19968;DHT22;10145;49.152;9.282;2023-12-20T04:29:13;5.10;99.90
19968;DHT22;10145;49.152;9.282;2023-12-20T04:31:38;5.10;99.90
19968;DHT22;10145;49.152;9.282;2023-12-20T04:34:04;5.10;99.90
19968;DHT22;10145;49.152;9.282;2023-12-20T04:36:29;5.10;99.90
19968;DHT22;10145;49.152;9.282;2023-12-20T04:38:55;5.10;99.90
19968;DHT22;10145;49.152;9.282;2023-12-20T04:41:21;5.10;99.90
19968;DHT22;10145;49.152;9.282;2023-12-20T04:43:46;5.10;99.90
19968;DHT22;10145;49.152;9.282;2023-12-20T04:46:12;5.20;99.90
19968;DHT22;10145;49.152;9.282;2023-12-20T04:48:37;5.10;99.90
19968;DHT22;10145;49.152;9.282;2023-12-20T04:51:03;5.20;99.90
19968;DHT22;10145;49.152;9.282;2023-12-20T04:53:28;5.20;99.90
19968;DHT22;10145;49.152;9.282;2023-12-20T04:55:54;5.20;99.90
19968;DHT22;10145;49.152;9.282;2023-12-20T04:58:19;5.20;99.90
19968;DHT22;10145;49.152;9.282;2023-12-20T05:00:45;5.20;99.90
19968;DHT22;10145;49.152;9.282;2023-12-20T05:03:11;5.20;99.90
19968;DHT22;10145;49.152;9.282;2023-12-20T05:05:36;5.20;99.90
19968;DHT22;10145;49.152;9.282;2023-12-20T05:08:02;5.20;99.90
19968;DHT22;10145;49.152;9.282;2023-12-20T05:10:28;5.20;99.90
19968;DHT22;10145;49.152;9.282;2023-12-20T05:12:53;5.20;99.90
19968;DHT22;10145;49.152;9.282;2023-12-20T05:15:19;5.20;99.90
19968;DHT22;10145;49.152;9.282;2023-12-20T05:17:44;5.30;99.90
19968;DHT22;10145;49.152;9.282;2023-12-20T05:20:10;5.30;99.90
19968;DHT22;10145;49.152;9.282;2023-12-20T05:22:35;5.20;99.90
19968;DHT22;10145;49.152;9.282;2023-12-20T05:25:01;5.30;99.90
19968;DHT22;10145;49.152;9.282;2023-12-20T05:27:27;5.40;99.90
19968;DHT22;10145;49.152;9.282;2023-12-20T05:29:52;5.30;99.90
19968;DHT22;10145;49.152;9.282;2023-12-20T05:32:18;5.30;99.90
19968;DHT22;10145;49.152;9.282;2023-12-20T05:34:44;5.30;99.90
19968;DHT22;10145;49.152;9.282;2023-12-20T05:37:09;5.30;99.90
19968;DHT22;10145;49.152;9.282;2023-12-20T05:39:35;5.30;99.90
19968;DHT22;10145;49.152;9.282;2023-12-20T05:42:00;5.30;99.90
19968;DHT22;10145;49.152;9.282;2023-12-20T05:44:26;5.30;99.90
19968;DHT22;10145;49.152;9.282;2023-12-20T05:46:51;5.30;99.90
19968;DHT22;10145;49.152;9.282;2023-12-20T05:49:17;5.40;99.90
19968;DHT22;10145;49.152;9.282;2023-12-20T05:51:42;5.40;99.90
19968;DHT22;10145;49.152;9.282;2023-12-20T05:54:09;5.40;99.90
19968;DHT22;10145;49.152;9.282;2023-12-20T05:56:35;5.40;99.90
19968;DHT22;10145;49.152;9.282;2023-12-20T05:59:00;5.30;99.90
19968;DHT22;10145;49.152;9.282;2023-12-20T06:01:26;5.40;99.90
19968;DHT22;10145;49.152;9.282;2023-12-20T06:03:51;5.40;99.90
19968;DHT22;10145;49.152;9.282;2023-12-20T06:06:17;5.40;99.90
19968;DHT22;10145;49.152;9.282;2023-12-20T06:08:43;5.40;99.90
19968;DHT22;10145;49.152;9.282;2023-12-20T06:11:08;5.40;99.90
19968;DHT22;10145;49.152;9.282;2023-12-20T06:13:34;5.40;99.90
19968;DHT22;10145;49.152;9.282;2023-12-20T06:16:01;5.40;99.90
19968;DHT22;10145;49.152;9.282;2023-12-20T06:18:26;5.50;99.90
19968;DHT22;10145;49.152;9.282;2023-12-20T06:20:52;5.40;99.90
19968;DHT22;10145;49.152;9.282;2023-12-20T06:23:17;5.50;99.90
19968;DHT22;10145;49.152;9.282;2023-12-20T06:25:44;5.50;99.90
19968;DHT22;10145;49.152;9.282;2023-12-20T06:28:09;5.40;99.90
19968;DHT22;10145;49.152;9.282;2023-12-20T06:30:36;5.50;99.90
19968;DHT22;10145;49.152;9.282;2023-12-20T06:33:01;5.50;99.90
19968;DHT22;10145;49.152;9.282;2023-12-20T06:35:27;5.50;99.90
19968;DHT22;10145;49.152;9.282;2023-12-20T06:37:52;5.50;99.90
19968;DHT22;10145;49.152;9.282;2023-12-20T06:40:18;5.50;99.90
19968;DHT22;10145;49.152;9.282;2023-12-20T06:42:44;5.50;99.90
19968;DHT22;10145;49.152;9.282;2023-12-20T06:45:10;5.50;99.90
19968;DHT22;10145;49.152;9.282;2023-12-20T06:47:35;5.50;99.90
19968;DHT22;10145;49.152;9.282;2023-12-20T06:50:01;5.50;99.90
19968;DHT22;10145;49.152;9.282;2023-12-20T06:52:27;5.50;99.90
19968;DHT22;10145;49.152;9.282;2023-12-20T06:54:52;5.50;99.90
19968;DHT22;10145;49.152;9.282;2023-12-20T06:57:18;5.60;99.90
19968;DHT22;10145;49.152;9.282;2023-12-20T06:59:45;5.50;99.90
19968;DHT22;10145;49.152;9.282;2023-12-20T07:02:10;5.50;99.90
19968;DHT22;10145;49.152;9.282;2023-12-20T07:04:40;5.50;99.90
19968;DHT22;10145;49.152;9.282;2023-12-20T07:07:06;5.50;99.90
19968;DHT22;10145;49.152;9.282;2023-12-20T07:09:32;5.50;99.90
19968;DHT22;10145;49.152;9.282;2023-12-20T07:11:58;5.50;99.90
19968;DHT22;10145;49.152;9.282;2023-12-20T07:14:23;5.60;99.90
19968;DHT22;10145;49.152;9.282;2023-12-20T07:16:49;5.60;99.90
19968;DHT22;10145;49.152;9.282;2023-12-20T07:19:14;5.60;99.90
19968;DHT22;10145;49.152;9.282;2023-12-20T07:21:40;5.60;99.90
19968;DHT22;10145;49.152;9.282;2023-12-20T07:24:06;5.60;99.90
19968;DHT22;10145;49.152;9.282;2023-12-20T07:26:31;5.60;99.90
19968;DHT22;10145;49.152;9.282;2023-12-20T07:28:57;5.60;99.90
19968;DHT22;10145;49.152;9.282;2023-12-20T07:31:24;5.60;99.90
19968;DHT22;10145;49.152;9.282;2023-12-20T07:33:49;5.60;99.90
19968;DHT22;10145;49.152;9.282;2023-12-20T07:36:15;5.60;99.90
19968;DHT22;10145;49.152;9.282;2023-12-20T07:38:40;5.60;99.90
19968;DHT22;10145;49.152;9.282;2023-12-20T07:41:12;5.60;99.90
19968;DHT22;10145;49.152;9.282;2023-12-20T07:43:38;5.60;99.90
19968;DHT22;10145;49.152;9.282;2023-12-20T07:46:07;5.60;99.90
19968;DHT22;10145;49.152;9.282;2023-12-20T07:48:35;5.50;99.90
19968;DHT22;10145;49.152;9.282;2023-12-20T07:51:02;5.50;99.90
19968;DHT22;10145;49.152;9.282;2023-12-20T07:53:27;5.50;99.90
19968;DHT22;10145;49.152;9.282;2023-12-20T07:55:53;5.50;99.90
19968;DHT22;10145;49.152;9.282;2023-12-20T07:58:19;5.50;99.90
19968;DHT22;10145;49.152;9.282;2023-12-20T08:00:44;5.50;99.90
19968;DHT22;10145;49.152;9.282;2023-12-20T08:03:10;5.50;99.90
19968;DHT22;10145;49.152;9.282;2023-12-20T08:05:35;5.40;99.90
19968;DHT22;10145;49.152;9.282;2023-12-20T08:08:01;5.50;99.90
19968;DHT22;10145;49.152;9.282;2023-12-20T08:10:27;5.50;99.90
19968;DHT22;10145;49.152;9.282;2023-12-20T08:12:55;5.50;99.90
19968;DHT22;10145;49.152;9.282;2023-12-20T08:15:20;5.50;99.90
19968;DHT22;10145;49.152;9.282;2023-12-20T08:17:46;5.40;99.90
19968;DHT22;10145;49.152;9.282;2023-12-20T08:20:12;5.30;99.90
19968;DHT22;10145;49.152;9.282;2023-12-20T08:22:37;5.20;99.90
19968;DHT22;10145;49.152;9.282;2023-12-20T08:25:03;5.10;99.90
19968;DHT22;10145;49.152;9.282;2023-12-20T08:27:29;5.10;99.90
19968;DHT22;10145;49.152;9.282;2023-12-20T08:29:57;5.00;99.90
19968;DHT22;10145;49.152;9.282;2023-12-20T08:32:25;5.10;99.90
19968;DHT22;10145;49.152;9.282;2023-12-20T08:34:51;5.10;99.90
19968;DHT22;10145;49.152;9.282;2023-12-20T08:37:17;5.10;99.90
19968;DHT22;10145;49.152;9.282;2023-12-20T08:39:43;5.20;99.90
19968;DHT22;10145;49.152;9.282;2023-12-20T08:42:09;5.40;99.90
19968;DHT22;10145;49.152;9.282;2023-12-20T08:44:35;5.40;99.90
19968;DHT22;10145;49.152;9.282;2023-12-20T08:47:00;5.40;99.90
19968;DHT22;10145;49.152;9.282;2023-12-20T08:49:26;5.30;99.90
19968;DHT22;10145;49.152;9.282;2023-12-20T08:51:53;5.30;99.90
19968;DHT22;10145;49.152;9.282;2023-12-20T08:54:18;5.20;99.90
19968;DHT22;10145;49.152;9.282;2023-12-20T08:56:45;5.10;99.90
19968;DHT22;10145;49.152;9.282;2023-12-20T08:59:11;5.00;99.90
19968;DHT22;10145;49.152;9.282;2023-12-20T09:01:37;5.00;99.90
19968;DHT22;10145;49.152;9.282;2023-12-20T09:04:03;4.90;99.90
19968;DHT22;10145;49.152;9.282;2023-12-20T09:06:28;4.90;99.90
19968;DHT22;10145;49.152;9.282;2023-12-20T09:08:54;4.90;99.90
19968;DHT22;10145;49.152;9.282;2023-12-20T09:11:19;4.90;99.90
19968;DHT22;10145;49.152;9.282;2023-12-20T09:13:45;4.90;99.90
19968;DHT22;10145;49.152;9.282;2023-12-20T09:16:11;4.90;99.90
19968;DHT22;10145;49.152;9.282;2023-12-20T09:18:38;5.00;99.90
19968;DHT22;10145;49.152;9.282;2023-12-20T09:21:03;5.00;99.90
19968;DHT22;10145;49.152;9.282;2023-12-20T09:23:29;5.10;99.90
19968;DHT22;10145;49.152;9.282;2023-12-20T09:25:55;5.10;99.90
19968;DHT22;10145;49.152;9.282;2023-12-20T09:28:20;5.10;99.90
19968;DHT22;10145;49.152;9.282;2023-12-20T09:30:46;5.10;99.90
19968;DHT22;10145;49.152;9.282;2023-12-20T09:33:13;5.20;99.90
19968;DHT22;10145;49.152;9.282;2023-12-20T09:35:38;5.20;99.90
19968;DHT22;10145;49.152;9.282;2023-12-20T09:38:04;5.30;99.90
19968;DHT22;10145;49.152;9.282;2023-12-20T09:40:32;5.30;99.90
19968;DHT22;10145;49.152;9.282;2023-12-20T09:43:03;5.30;99.90
19968;DHT22;10145;49.152;9.282;2023-12-20T09:45:30;5.30;99.90
19968;DHT22;10145;49.152;9.282;2023-12-20T09:47:57;5.40;99.90
19968;DHT22;10145;49.152;9.282;2023-12-20T09:50:23;5.50;99.90
19968;DHT22;10145;49.152;9.282;2023-12-20T09:52:50;5.60;99.90
19968;DHT22;10145;49.152;9.282;2023-12-20T09:55:17;5.70;99.90
19968;DHT22;10145;49.152;9.282;2023-12-20T09:57:44;5.70;99.90
19968;DHT22;10145;49.152;9.282;2023-12-20T10:00:10;5.70;99.90
19968;DHT22;10145;49.152;9.282;2023-12-20T10:02:38;5.70;99.90
19968;DHT22;10145;49.152;9.282;2023-12-20T10:05:08;5.70;99.90
19968;DHT22;10145;49.152;9.282;2023-12-20T10:07:37;5.60;99.90
19968;DHT22;10145;49.152;9.282;2023-12-20T10:10:04;5.60;99.90
19968;DHT22;10145;49.152;9.282;2023-12-20T10:12:29;5.50;99.90
19968;DHT22;10145;49.152;9.282;2023-12-20T10:14:56;5.60;99.90
19968;DHT22;10145;49.152;9.282;2023-12-20T10:17:22;5.60;99.90
19968;DHT22;10145;49.152;9.282;2023-12-20T10:19:49;5.70;99.90
19968;DHT22;10145;49.152;9.282;2023-12-20T10:22:15;5.80;99.90
19968;DHT22;10145;49.152;9.282;2023-12-20T10:24:40;5.90;99.90
19968;DHT22;10145;49.152;9.282;2023-12-20T10:27:07;6.10;99.90
19968;DHT22;10145;49.152;9.282;2023-12-20T10:29:37;6.30;99.90
19968;DHT22;10145;49.152;9.282;2023-12-20T10:32:25;6.50;99.90
19968;DHT22;10145;49.152;9.282;2023-12-20T10:34:53;6.50;99.90
19968;DHT22;10145;49.152;9.282;2023-12-20T10:37:19;6.50;99.90
19968;DHT22;10145;49.152;9.282;2023-12-20T10:39:52;6.50;99.90
19968;DHT22;10145;49.152;9.282;2023-12-20T10:42:22;6.40;99.90
19968;DHT22;10145;49.152;9.282;2023-12-20T10:44:49;6.30;99.90
19968;DHT22;10145;49.152;9.282;2023-12-20T10:47:15;6.20;99.90
19968;DHT22;10145;49.152;9.282;2023-12-20T10:49:42;6.20;99.90
19968;DHT22;10145;49.152;9.282;2023-12-20T10:52:11;6.20;99.90
19968;DHT22;10145;49.152;9.282;2023-12-20T10:54:37;6.20;99.90
19968;DHT22;10145;49.152;9.282;2023-12-20T10:57:05;6.20;99.90
19968;DHT22;10145;49.152;9.282;2023-12-20T10:59:33;6.30;99.90
19968;DHT22;10145;49.152;9.282;2023-12-20T11:01:59;6.70;99.90
19968;DHT22;10145;49.152;9.282;2023-12-20T11:07:30;6.70;99.90
19968;DHT22;10145;49.152;9.282;2023-12-20T11:10:10;6.70;99.90
19968;DHT22;10145;49.152;9.282;2023-12-20T11:12:56;6.80;99.90
19968;DHT22;10145;49.152;9.282;2023-12-20T11:15:24;6.90;99.90
19968;DHT22;10145;49.152;9.282;2023-12-20T11:17:56;7.00;99.90
19968;DHT22;10145;49.152;9.282;2023-12-20T11:20:39;7.10;99.90
19968;DHT22;10145;49.152;9.282;2023-12-20T11:23:06;7.10;99.90
19968;DHT22;10145;49.152;9.282;2023-12-20T11:25:51;7.00;99.90
19968;DHT22;10145;49.152;9.282;2023-12-20T11:28:21;6.90;99.90
19968;DHT22;10145;49.152;9.282;2023-12-20T11:30:47;6.80;99.90
19968;DHT22;10145;49.152;9.282;2023-12-20T11:33:15;6.80;99.90
19968;DHT22;10145;49.152;9.282;2023-12-20T11:35:41;6.70;99.90
19968;DHT22;10145;49.152;9.282;2023-12-20T11:38:08;6.70;99.90
19968;DHT22;10145;49.152;9.282;2023-12-20T11:40:35;6.70;99.90
19968;DHT22;10145;49.152;9.282;2023-12-20T11:43:01;6.70;99.90
19968;DHT22;10145;49.152;9.282;2023-12-20T11:45:26;6.60;99.90
19968;DHT22;10145;49.152;9.282;2023-12-20T11:47:52;6.60;99.90
19968;DHT22;10145;49.152;9.282;2023-12-20T11:50:22;6.80;99.90
19968;DHT22;10145;49.152;9.282;2023-12-20T11:52:49;6.80;99.90
19968;DHT22;10145;49.152;9.282;2023-12-20T11:55:14;6.80;99.90
19968;DHT22;10145;49.152;9.282;2023-12-20T11:57:40;6.70;99.90
19968;DHT22;10145;49.152;9.282;2023-12-20T12:00:06;6.80;99.90
19968;DHT22;10145;49.152;9.282;2023-12-20T12:02:32;6.80;99.90
19968;DHT22;10145;49.152;9.282;2023-12-20T12:04:59;6.90;99.90
19968;DHT22;10145;49.152;9.282;2023-12-20T12:07:25;6.90;99.90
19968;DHT22;10145;49.152;9.282;2023-12-20T12:09:51;7.00;99.90
19968;DHT22;10145;49.152;9.282;2023-12-20T12:12:17;7.20;99.90
19968;DHT22;10145;49.152;9.282;2023-12-20T12:14:44;7.20;99.90
19968;DHT22;10145;49.152;9.282;2023-12-20T12:17:13;7.30;99.90
19968;DHT22;10145;49.152;9.282;2023-12-20T12:19:40;7.30;99.90
19968;DHT22;10145;49.152;9.282;2023-12-20T12:22:07;7.30;99.90
19968;DHT22;10145;49.152;9.282;2023-12-20T12:24:34;7.30;99.90
19968;DHT22;10145;49.152;9.282;2023-12-20T12:27:00;7.10;99.90
19968;DHT22;10145;49.152;9.282;2023-12-20T12:29:25;7.00;99.90
19968;DHT22;10145;49.152;9.282;2023-12-20T12:31:51;6.90;99.90
19968;DHT22;10145;49.152;9.282;2023-12-20T12:34:17;6.80;99.90
19968;DHT22;10145;49.152;9.282;2023-12-20T12:36:43;7.00;99.90
19968;DHT22;10145;49.152;9.282;2023-12-20T12:39:12;6.80;99.90
19968;DHT22;10145;49.152;9.282;2023-12-20T12:41:40;6.70;99.90
19968;DHT22;10145;49.152;9.282;2023-12-20T12:44:05;6.80;99.90
19968;DHT22;10145;49.152;9.282;2023-12-20T12:46:31;6.80;99.90
19968;DHT22;10145;49.152;9.282;2023-12-20T12:48:58;6.80;99.90
19968;DHT22;10145;49.152;9.282;2023-12-20T12:51:23;6.90;99.90
19968;DHT22;10145;49.152;9.282;2023-12-20T12:53:49;6.80;99.90
19968;DHT22;10145;49.152;9.282;2023-12-20T12:56:15;6.80;99.90
19968;DHT22;10145;49.152;9.282;2023-12-20T12:58:41;6.70;99.90
19968;DHT22;10145;49.152;9.282;2023-12-20T13:01:07;6.70;99.90
19968;DHT22;10145;49.152;9.282;2023-12-20T13:03:32;6.70;99.90
19968;DHT22;10145;49.152;9.282;2023-12-20T13:05:59;6.60;99.90
19968;DHT22;10145;49.152;9.282;2023-12-20T13:08:25;6.50;99.90
19968;DHT22;10145;49.152;9.282;2023-12-20T13:10:51;6.50;99.90
19968;DHT22;10145;49.152;9.282;2023-12-20T13:13:16;6.40;99.90
19968;DHT22;10145;49.152;9.282;2023-12-20T13:15:42;6.30;99.90
19968;DHT22;10145;49.152;9.282;2023-12-20T13:18:08;6.20;99.90
19968;DHT22;10145;49.152;9.282;2023-12-20T13:20:33;6.20;99.90
19968;DHT22;10145;49.152;9.282;2023-12-20T13:22:59;6.20;99.90
19968;DHT22;10145;49.152;9.282;2023-12-20T13:25:24;6.10;99.90
19968;DHT22;10145;49.152;9.282;2023-12-20T13:27:50;6.10;99.90
19968;DHT22;10145;49.152;9.282;2023-12-20T13:30:18;6.00;99.90
19968;DHT22;10145;49.152;9.282;2023-12-20T13:32:44;6.00;99.90
19968;DHT22;10145;49.152;9.282;2023-12-20T13:35:10;6.00;99.90
19968;DHT22;10145;49.152;9.282;2023-12-20T13:37:35;6.00;99.90
19968;DHT22;10145;49.152;9.282;2023-12-20T13:40:01;6.00;99.90
19968;DHT22;10145;49.152;9.282;2023-12-20T13:42:28;6.00;99.90
19968;DHT22;10145;49.152;9.282;2023-12-20T13:44:54;6.00;99.90
19968;DHT22;10145;49.152;9.282;2023-12-20T13:47:19;6.00;99.90
19968;DHT22;10145;49.152;9.282;2023-12-20T13:49:45;6.00;99.90
19968;DHT22;10145;49.152;9.282;2023-12-20T13:52:11;6.00;99.90
19968;DHT22;10145;49.152;9.282;2023-12-20T13:54:37;5.90;99.90
19968;DHT22;10145;49.152;9.282;2023-12-20T13:57:03;6.00;99.90
19968;DHT22;10145;49.152;9.282;2023-12-20T13:59:29;6.00;99.90
19968;DHT22;10145;49.152;9.282;2023-12-20T14:01:54;6.00;99.90
19968;DHT22;10145;49.152;9.282;2023-12-20T14:04:22;6.00;99.90
19968;DHT22;10145;49.152;9.282;2023-12-20T14:06:47;6.00;99.90
19968;DHT22;10145;49.152;9.282;2023-12-20T14:09:13;6.00;99.90
19968;DHT22;10145;49.152;9.282;2023-12-20T14:11:41;5.90;99.90
19968;DHT22;10145;49.152;9.282;2023-12-20T14:14:07;5.80;99.90
19968;DHT22;10145;49.152;9.282;2023-12-20T14:16:36;5.70;99.90
19968;DHT22;10145;49.152;9.282;2023-12-20T14:19:01;5.60;99.90
19968;DHT22;10145;49.152;9.282;2023-12-20T14:21:28;5.50;99.90
19968;DHT22;10145;49.152;9.282;2023-12-20T14:23:54;5.40;99.90
19968;DHT22;10145;49.152;9.282;2023-12-20T14:26:19;5.30;99.90
19968;DHT22;10145;49.152;9.282;2023-12-20T14:28:45;5.20;99.90
19968;DHT22;10145;49.152;9.282;2023-12-20T14:31:11;5.20;99.90
19968;DHT22;10145;49.152;9.282;2023-12-20T14:33:37;5.20;99.90
19968;DHT22;10145;49.152;9.282;2023-12-20T14:36:05;5.10;99.90
19968;DHT22;10145;49.152;9.282;2023-12-20T14:38:31;5.10;99.90
19968;DHT22;10145;49.152;9.282;2023-12-20T14:40:57;5.10;99.90
19968;DHT22;10145;49.152;9.282;2023-12-20T14:43:23;5.10;99.90
19968;DHT22;10145;49.152;9.282;2023-12-20T14:45:48;5.10;99.90
19968;DHT22;10145;49.152;9.282;2023-12-20T14:48:14;5.10;99.90
19968;DHT22;10145;49.152;9.282;2023-12-20T14:50:39;5.10;99.90
19968;DHT22;10145;49.152;9.282;2023-12-20T14:53:08;5.10;99.90
19968;DHT22;10145;49.152;9.282;2023-12-20T14:55:33;5.20;99.90
19968;DHT22;10145;49.152;9.282;2023-12-20T14:57:59;5.10;99.90
19968;DHT22;10145;49.152;9.282;2023-12-20T15:00:25;5.10;99.90
19968;DHT22;10145;49.152;9.282;2023-12-20T15:02:51;5.20;99.90
19968;DHT22;10145;49.152;9.282;2023-12-20T15:05:16;5.20;99.90
19968;DHT22;10145;49.152;9.282;2023-12-20T15:07:43;5.20;99.90
19968;DHT22;10145;49.152;9.282;2023-12-20T15:10:09;5.30;99.90
19968;DHT22;10145;49.152;9.282;2023-12-20T15:12:34;5.30;99.90
19968;DHT22;10145;49.152;9.282;2023-12-20T15:15:00;5.30;99.90
19968;DHT22;10145;49.152;9.282;2023-12-20T15:17:26;5.40;99.90
19968;DHT22;10145;49.152;9.282;2023-12-20T15:19:52;5.40;99.90
19968;DHT22;10145;49.152;9.282;2023-12-20T15:22:18;5.40;99.90
19968;DHT22;10145;49.152;9.282;2023-12-20T15:24:43;5.40;99.90
19968;DHT22;10145;49.152;9.282;2023-12-20T15:27:11;5.40;99.90
19968;DHT22;10145;49.152;9.282;2023-12-20T15:29:37;5.40;99.90
19968;DHT22;10145;49.152;9.282;2023-12-20T15:32:02;5.40;99.90
19968;DHT22;10145;49.152;9.282;2023-12-20T15:34:29;5.40;99.90
19968;DHT22;10145;49.152;9.282;2023-12-20T15:36:55;5.40;99.90
19968;DHT22;10145;49.152;9.282;2023-12-20T15:39:20;5.40;99.90
19968;DHT22;10145;49.152;9.282;2023-12-20T15:41:46;5.40;99.90